Airfield :







YOU CAN JOIN US ON...

 
LOGIN :

Register | Disclaimer

   EN    FR    IT 

 









Legend :    VFR   Marginal VFR   IFR   Intensive IFR   Very Intensive IFR
Visi :
Ceiling :
>= 8 km
>= 3000ft
5 to 8 km
1000 to 3000 ft
1500m to 5 km
500 to 1000 ft
800 to 1500m
200 to 500 ft
< 800m
< 200 ft
Symbols :   Thunderstorms  Fog  Heavy snow  Heavy precipitations  Wind > 20 kt






- Airport Elevation : 285 ft
- IATA code : ALB


KALB - Albany International

CURRENT METAR :
  • 101051Z 18010KT 7SM OVC005 09/07 A2967 RMK AO2 SLP050 T00890067

EXPIRED METARs :
  • 100951Z 17012KT 9SM OVC005 09/07 A2966 RMK AO2 SLP044 T00890067
  • 100851Z 18015G22KT 9SM OVC005 09/06 A2964 RMK AO2 RAB18E44 SLP039 P0000 60001 T00890061 50005

TAF KALB
Valid from the 10 at 09:00 until the 11 at 06:00 UTC


100916Z 1009/1106 18012G20KT P6SM OVC005
FM101200 20012G18KT P6SM VCSH OVC007
FM101500 22008KT 4SM BR OVC015
FM101800 26012G22KT P6SM OVC025
FM102100 26010G18KT P6SM OVC035
FM110200 31010KT P6SM OVC050



MET'MAP, your aeronautical weather chart ! - Copyright ORBIFLY December 2007 - Disclaimer

ORBIFLY MET'MAP TEAM :

Programming & Development : Alexandra Zaïnal
Concept & original design : Baudouin d'Aumeries
Assistance for programming : Marc-Olivier Méhu
Technical & hardware support : Manuel Goepfert

Contact : metmap@orbifly.com




SOURCES & CREDITS :

   NOAA